Time;durP1;ratioP1;P1;durP2;ratioP2;P2;SDS_P1;SDS_P2;PMS_P1;PMS_P2;Temp;Humidity;BMP_temperature;BMP_pressure;BME280_temperature;BME280_humidity;BME280_pressure;Samples;Min_cycle;Max_cycle;Signal;HPM_P1;HPM_P2
2022/12/20 00:00:59;;;;;;;28.25;13.45;;;;;;;-4.66;68.19;101354.63;1761265;80;21517;-38
2022/12/20 00:03:26;;;;;;;32.93;13.78;;;;;;;-4.73;68.35;101357.80;1760965;81;21013;-38
2022/12/20 00:05:53;;;;;;;26.90;12.70;;;;;;;-4.80;68.56;101351.73;1761088;81;21233;-38
2022/12/20 00:08:20;;;;;;;27.93;12.40;;;;;;;-4.83;68.70;101349.80;1760797;80;20889;-38
2022/12/20 00:10:47;;;;;;;31.00;12.82;;;;;;;-4.79;68.60;101347.54;1761014;81;21686;-38
2022/12/20 00:13:14;;;;;;;20.82;11.93;;;;;;;-4.76;68.70;101348.97;1761042;81;21100;-38
2022/12/20 00:15:40;;;;;;;26.90;12.13;;;;;;;-4.75;68.41;101343.48;1761142;81;20997;-38
2022/12/20 00:18:08;;;;;;;22.07;12.43;;;;;;;-4.82;68.41;101340.03;1760990;81;23121;-38
2022/12/20 00:20:36;;;;;;;25.00;12.85;;;;;;;-4.83;68.48;101340.54;1761041;80;21029;-38
2022/12/20 00:23:02;;;;;;;26.57;11.97;;;;;;;-4.81;68.32;101333.73;1761125;81;21484;-38
2022/12/20 00:25:29;;;;;;;25.97;11.60;;;;;;;-4.87;68.48;101334.05;1761131;81;20961;-38
2022/12/20 00:27:56;;;;;;;24.92;12.28;;;;;;;-4.88;68.42;101323.16;1761164;80;21029;-38
2022/12/20 00:30:23;;;;;;;24.18;11.90;;;;;;;-4.92;68.46;101331.22;1761080;81;21147;-38
2022/12/20 00:32:49;;;;;;;27.25;12.20;;;;;;;-4.93;68.43;101325.63;1760945;80;21012;-38
2022/12/20 00:35:16;;;;;;;24.43;11.35;;;;;;;-4.94;68.49;101333.80;1760994;80;21008;-38
2022/12/20 00:37:43;;;;;;;24.32;11.33;;;;;;;-4.94;68.46;101331.93;1760972;80;21008;-38
2022/12/20 00:40:10;;;;;;;25.17;12.13;;;;;;;-4.88;68.30;101320.52;1760924;80;21019;-38
2022/12/20 00:42:36;;;;;;;25.15;12.55;;;;;;;-4.94;68.27;101310.77;1760816;81;21233;-38
2022/12/20 00:45:06;;;;;;;26.33;11.75;;;;;;;-4.96;68.31;101307.54;1754935;81;20924;-38
2022/12/20 00:47:34;;;;;;;26.00;12.00;;;;;;;-5.01;68.19;101304.71;1761393;81;20968;-38
2022/12/20 00:50:00;;;;;;;25.25;11.80;;;;;;;-5.06;68.33;101303.20;1761037;81;21247;-38
2022/12/20 00:52:27;;;;;;;26.02;12.07;;;;;;;-5.02;68.53;101287.72;1760887;81;21028;-38
2022/12/20 00:54:54;;;;;;;18.32;10.50;;;;;;;-4.99;68.31;101284.17;1760910;80;21256;-38
2022/12/20 00:57:20;;;;;;;23.50;11.80;;;;;;;-4.96;68.34;101280.28;1760840;81;20977;-38
2022/12/20 00:59:48;;;;;;;19.80;11.48;;;;;;;-4.90;68.16;101299.28;1760920;81;21011;-38
2022/12/20 01:02:15;;;;;;;25.43;11.43;;;;;;;-4.89;67.91;101299.05;1760995;81;21005;-38
2022/12/20 01:04:41;;;;;;;25.25;11.28;;;;;;;-4.88;67.86;101294.06;1761094;80;21012;-38
2022/12/20 01:07:09;;;;;;;24.30;11.45;;;;;;;-4.93;67.96;101300.50;1760929;80;21975;-38
2022/12/20 01:09:37;;;;;;;22.35;11.20;;;;;;;-4.93;68.01;101298.36;1760264;81;20972;-38
2022/12/20 01:12:04;;;;;;;25.37;12.25;;;;;;;-4.99;68.15;101286.81;1760412;81;21001;-38
2022/12/20 01:14:31;;;;;;;21.33;11.25;;;;;;;-5.03;68.33;101272.87;1760260;81;21073;-38
2022/12/20 01:16:58;;;;;;;26.85;11.03;;;;;;;-5.02;68.27;101259.45;1760486;81;21044;-38
2022/12/20 01:19:25;;;;;;;20.30;11.30;;;;;;;-5.03;68.35;101260.46;1760700;81;21225;-38
2022/12/20 01:21:52;;;;;;;28.80;11.48;;;;;;;-5.01;68.31;101257.11;1760728;81;21526;-38
2022/12/20 01:24:19;;;;;;;22.55;11.00;;;;;;;-5.04;68.27;101253.57;1760364;81;21533;-38
2022/12/20 01:26:46;;;;;;;20.80;11.05;;;;;;;-5.02;68.32;101243.58;1760535;81;20968;-38
2022/12/20 01:29:13;;;;;;;22.07;11.35;;;;;;;-4.94;68.15;101230.09;1760598;81;21545;-38
2022/12/20 01:31:40;;;;;;;21.80;10.78;;;;;;;-4.94;68.01;101226.67;1760706;81;21123;-38
2022/12/20 01:34:07;;;;;;;19.37;11.10;;;;;;;-4.95;67.74;101234.30;1760718;81;20945;-38
2022/12/20 01:36:37;;;;;;;20.68;10.25;;;;;;;-4.96;67.84;101217.61;1754478;81;20937;-38
2022/12/20 01:39:10;;;;;;;21.00;10.40;;;;;;;-4.92;67.88;101210.88;1760533;81;21024;-38
2022/12/20 01:41:37;;;;;;;17.73;11.12;;;;;;;-4.88;67.59;101208.09;1760273;81;21079;-38
2022/12/20 01:44:22;;;;;;;19.65;10.23;;;;;;;-4.92;67.37;101206.91;1760776;81;21801;-38
2022/12/20 01:46:49;;;;;;;17.52;9.90;;;;;;;-4.92;67.24;101194.19;1760590;81;21190;-38
2022/12/20 01:49:27;;;;;;;19.50;10.68;;;;;;;-4.95;67.16;101186.18;1760355;81;21005;-38
2022/12/20 01:52:13;;;;;;;14.70;8.88;;;;;;;-4.90;67.24;101173.64;1760390;81;21019;-38
2022/12/20 01:54:47;;;;;;;22.20;9.60;;;;;;;-4.86;67.01;101163.73;1760555;81;21023;-38
2022/12/20 01:57:25;;;;;;;17.02;9.05;;;;;;;-4.86;66.80;101166.38;1759794;81;21615;-38
2022/12/20 01:59:53;;;;;;;18.07;9.20;;;;;;;-4.78;66.63;101160.52;1760490;81;20928;-38
2022/12/20 02:02:20;;;;;;;17.15;10.15;;;;;;;-4.76;66.14;101160.62;1754440;81;21028;-38
2022/12/20 02:04:47;;;;;;;20.20;9.80;;;;;;;-4.75;66.23;101152.98;1760547;81;20937;-38
2022/12/20 02:07:21;;;;;;;18.70;9.90;;;;;;;-4.71;66.16;101151.52;1760561;81;21004;-38
2022/12/20 02:09:47;;;;;;;19.70;9.80;;;;;;;-4.70;66.23;101150.50;1760458;80;22059;-38
2022/12/20 02:12:18;;;;;;;16.77;10.03;;;;;;;-4.67;66.37;101145.28;1760442;81;20881;-38
2022/12/20 02:15:34;;;;;;;19.40;9.70;;;;;;;-4.60;66.20;101128.84;1760884;81;21032;-38
2022/12/20 02:18:06;;;;;;;20.92;10.35;;;;;;;-4.59;66.05;101111.92;1760760;81;21507;-38
2022/12/20 02:21:04;;;;;;;19.62;9.93;;;;;;;-4.56;65.94;101118.13;1760545;81;21776;-39
2022/12/20 02:24:05;;;;;;;21.12;10.23;;;;;;;-4.52;65.93;101116.14;1760681;81;21298;-39
2022/12/20 02:27:06;;;;;;;24.98;11.57;;;;;;;-4.55;65.52;101114.45;1760587;81;21000;-39
2022/12/20 02:29:58;;;;;;;19.42;10.23;;;;;;;-4.61;65.62;101102.89;1760468;81;21514;-38
2022/12/20 02:32:47;;;;;;;20.27;11.12;;;;;;;-4.63;65.53;101105.45;1760471;81;20933;-38
2022/12/20 02:35:21;;;;;;;19.98;10.50;;;;;;;-4.65;65.46;101100.39;1760527;81;21781;-39
2022/12/20 02:37:54;;;;;;;19.95;10.28;;;;;;;-4.67;65.72;101105.59;1760814;81;21046;-38
2022/12/20 02:40:24;;;;;;;21.85;11.53;;;;;;;-4.64;65.40;101102.50;1760481;81;20917;-38
2022/12/20 02:42:58;;;;;;;24.98;10.38;;;;;;;-4.62;65.46;101102.59;1761077;81;21008;-39
2022/12/20 02:45:32;;;;;;;21.73;11.15;;;;;;;-4.58;65.40;101093.70;1760604;81;20960;-39
2022/12/20 02:48:06;;;;;;;22.42;11.35;;;;;;;-4.56;65.35;101092.98;1761078;81;20933;-39
2022/12/20 02:50:39;;;;;;;19.42;10.85;;;;;;;-4.56;65.55;101081.88;1760550;81;21218;-39
2022/12/20 02:53:06;;;;;;;17.67;10.08;;;;;;;-4.49;65.43;101073.86;1760912;81;21799;-38
2022/12/20 02:55:46;;;;;;;17.27;10.50;;;;;;;-4.44;65.20;101076.66;1760481;81;20964;-38
2022/12/20 02:58:27;;;;;;;19.37;10.40;;;;;;;-4.47;64.95;101070.49;1757352;81;20937;-39
2022/12/20 03:00:55;;;;;;;17.73;9.95;;;;;;;-4.43;64.96;101053.14;1743089;81;20960;-38
2022/12/20 03:03:22;;;;;;;15.78;9.43;;;;;;;-4.42;64.76;101049.47;1760565;81;22008;-38
2022/12/20 03:05:54;;;;;;;19.98;9.63;;;;;;;-4.42;64.64;101050.28;1760673;81;21369;-39
2022/12/20 03:08:22;;;;;;;19.35;10.23;;;;;;;-4.36;64.52;101051.25;1760686;80;20972;-39
2022/12/20 03:10:50;;;;;;;16.32;9.35;;;;;;;-4.35;64.28;101036.95;1761206;80;21072;-38
2022/12/20 03:13:17;;;;;;;15.63;9.73;;;;;;;-4.33;63.92;101037.56;1760048;80;20976;-38
2022/12/20 03:15:49;;;;;;;15.40;9.63;;;;;;;-4.27;63.62;101033.23;1755233;81;21158;-39
2022/12/20 03:18:16;;;;;;;16.80;9.88;;;;;;;-4.30;63.79;101024.38;1755202;81;20996;-38
2022/12/20 03:20:42;;;;;;;13.70;9.08;;;;;;;-4.25;63.70;101020.55;1755197;81;20960;-38
2022/12/20 03:23:09;;;;;;;18.02;9.93;;;;;;;-4.19;63.71;101015.19;1755298;81;21615;-38
2022/12/20 03:25:36;;;;;;;17.32;9.90;;;;;;;-4.17;63.05;101007.03;1755271;81;20968;-38
2022/12/20 03:28:03;;;;;;;15.72;10.03;;;;;;;-4.12;63.06;101003.20;1755333;81;21254;-38
2022/12/20 03:30:31;;;;;;;20.52;10.25;;;;;;;-4.08;63.07;101007.84;1755485;81;20988;-38
2022/12/20 03:32:57;;;;;;;16.48;9.70;;;;;;;-4.05;62.82;101000.75;1755368;81;21031;-38
2022/12/20 03:35:25;;;;;;;20.05;9.70;;;;;;;-3.99;62.32;101001.20;1755275;81;20936;-38
2022/12/20 03:37:54;;;;;;;15.40;9.53;;;;;;;-3.98;61.45;100990.09;1755190;81;20998;-38
2022/12/20 03:40:20;;;;;;;17.25;9.53;;;;;;;-3.96;61.73;100998.09;1755464;81;21966;-39
2022/12/20 03:42:47;;;;;;;17.30;9.23;;;;;;;-3.95;61.34;100995.73;1755151;81;21036;-38
2022/12/20 03:45:14;;;;;;;16.37;8.78;;;;;;;-3.96;61.63;100985.36;1755391;81;21074;-38
2022/12/20 03:47:41;;;;;;;15.28;8.48;;;;;;;-3.94;61.29;100983.30;1755270;81;21008;-38
2022/12/20 03:50:10;;;;;;;17.48;8.53;;;;;;;-3.90;60.78;100981.00;1755460;81;21092;-38
2022/12/20 03:52:37;;;;;;;14.13;7.60;;;;;;;-3.90;60.20;100977.03;1755664;81;21771;-39
2022/12/20 03:55:08;;;;;;;14.25;8.30;;;;;;;-3.80;60.06;100972.00;1755327;81;20945;-38
2022/12/20 03:57:36;;;;;;;17.60;9.30;;;;;;;-3.76;59.70;100966.02;1754948;81;21048;-38
2022/12/20 04:00:07;;;;;;;17.40;9.43;;;;;;;-3.69;59.39;100965.42;1731659;81;20980;-38
2022/12/20 04:02:37;;;;;;;15.48;8.48;;;;;;;-3.66;59.27;100962.83;1754952;81;21052;-38
2022/12/20 04:05:06;;;;;;;12.63;7.33;;;;;;;-3.63;59.00;100951.24;1755406;81;21264;-38
2022/12/20 04:07:33;;;;;;;16.15;8.05;;;;;;;-3.59;57.84;100951.63;1755344;81;20921;-38
2022/12/20 04:10:00;;;;;;;12.40;7.17;;;;;;;-3.54;57.47;100947.25;1755133;81;20996;-38
2022/12/20 04:12:26;;;;;;;14.28;7.80;;;;;;;-3.48;57.77;100942.05;1754916;81;21021;-38
2022/12/20 04:14:53;;;;;;;13.83;7.28;;;;;;;-3.46;57.52;100931.52;1755068;81;21630;-38
2022/12/20 04:17:20;;;;;;;14.58;7.55;;;;;;;-3.39;56.80;100932.23;1755029;81;21230;-38
2022/12/20 04:19:47;;;;;;;14.15;6.87;;;;;;;-3.38;55.92;100925.88;1754794;81;21538;-38
2022/12/20 04:22:14;;;;;;;14.63;7.75;;;;;;;-3.35;55.50;100921.45;1755025;81;20945;-38
2022/12/20 04:24:42;;;;;;;10.90;6.58;;;;;;;-3.30;55.58;100921.58;1749397;81;21048;-38
2022/12/20 04:27:11;;;;;;;15.08;8.15;;;;;;;-3.25;55.62;100917.72;1753073;81;21514;-38
2022/12/20 04:29:38;;;;;;;15.55;8.10;;;;;;;-3.22;55.55;100912.45;1754992;81;21253;-39
2022/12/20 04:32:05;;;;;;;15.90;7.83;;;;;;;-3.20;55.87;100907.73;1755116;81;21092;-38
2022/12/20 04:34:33;;;;;;;14.35;8.53;;;;;;;-3.19;56.46;100914.11;1754900;81;20960;-38
2022/12/20 04:37:01;;;;;;;17.42;8.15;;;;;;;-3.13;56.53;100907.08;1755032;81;21601;-38
2022/12/20 04:39:32;;;;;;;16.82;7.95;;;;;;;-3.15;55.86;100891.39;1754095;81;21000;-38
2022/12/20 04:42:19;;;;;;;15.78;8.28;;;;;;;-3.14;55.42;100895.66;1754992;81;21101;-38
2022/12/20 04:44:46;;;;;;;15.98;7.97;;;;;;;-3.18;55.02;100886.56;1755273;81;21034;-39
2022/12/20 04:47:14;;;;;;;15.00;8.55;;;;;;;-3.19;54.19;100883.61;1755222;81;21008;-39
2022/12/20 04:49:40;;;;;;;15.70;7.50;;;;;;;-3.17;53.46;100871.45;1755118;81;21021;-38
2022/12/20 04:54:53;;;;;;;12.15;7.50;;;;;;;-3.05;53.60;100863.50;1755018;81;23111;-38
2022/12/20 04:57:21;;;;;;;14.85;7.95;;;;;;;-3.04;53.47;100847.84;1754444;81;20984;-38
2022/12/20 04:59:49;;;;;;;12.80;7.83;;;;;;;-2.97;53.36;100859.15;1755060;81;21029;-38
2022/12/20 05:02:16;;;;;;;15.75;8.20;;;;;;;-2.96;52.92;100842.20;1755041;81;21080;-38
2022/12/20 05:04:44;;;;;;;15.23;7.75;;;;;;;-2.91;52.69;100839.65;1753359;81;21055;-38
